sensor_id;sensor_type;location;lat;lon;timestamp;P1;durP1;ratioP1;P2;durP2;ratioP2
16524;SDS011;8375;33.594;-117.718;2023-08-08T01:12:21;6.32;;;3.53;;
16524;SDS011;8375;33.594;-117.718;2023-08-08T01:14:51;5.93;;;3.60;;
16524;SDS011;8375;33.594;-117.718;2023-08-08T01:17:22;6.47;;;3.70;;
16524;SDS011;8375;33.594;-117.718;2023-08-08T01:19:52;6.38;;;3.97;;
16524;SDS011;8375;33.594;-117.718;2023-08-08T01:22:23;6.28;;;3.65;;
16524;SDS011;8375;33.594;-117.718;2023-08-08T01:24:59;5.88;;;3.75;;
16524;SDS011;8375;33.594;-117.718;2023-08-08T01:27:28;6.22;;;3.70;;
16524;SDS011;8375;33.594;-117.718;2023-08-08T01:29:57;7.25;;;3.90;;
16524;SDS011;8375;33.594;-117.718;2023-08-08T01:32:26;6.28;;;3.92;;
16524;SDS011;8375;33.594;-117.718;2023-08-08T01:34:54;8.75;;;3.88;;
16524;SDS011;8375;33.594;-117.718;2023-08-08T01:37:24;5.90;;;3.55;;
16524;SDS011;8375;33.594;-117.718;2023-08-08T01:40:01;6.63;;;3.83;;
16524;SDS011;8375;33.594;-117.718;2023-08-08T01:42:32;5.25;;;3.60;;
16524;SDS011;8375;33.594;-117.718;2023-08-08T01:45:01;5.38;;;4.10;;
16524;SDS011;8375;33.594;-117.718;2023-08-08T01:47:31;7.75;;;4.07;;
16524;SDS011;8375;33.594;-117.718;2023-08-08T01:50:00;7.20;;;4.40;;
16524;SDS011;8375;33.594;-117.718;2023-08-08T01:52:29;7.80;;;4.10;;
16524;SDS011;8375;33.594;-117.718;2023-08-08T01:54:57;9.10;;;4.20;;
16524;SDS011;8375;33.594;-117.718;2023-08-08T01:57:28;7.90;;;4.60;;
16524;SDS011;8375;33.594;-117.718;2023-08-08T01:59:56;9.38;;;4.53;;
16524;SDS011;8375;33.594;-117.718;2023-08-08T02:02:25;10.45;;;4.50;;
16524;SDS011;8375;33.594;-117.718;2023-08-08T02:04:54;7.35;;;4.63;;
16524;SDS011;8375;33.594;-117.718;2023-08-08T02:07:23;8.18;;;4.32;;
16524;SDS011;8375;33.594;-117.718;2023-08-08T02:09:51;10.02;;;4.90;;
16524;SDS011;8375;33.594;-117.718;2023-08-08T02:12:21;9.43;;;4.88;;
16524;SDS011;8375;33.594;-117.718;2023-08-08T02:14:51;9.52;;;5.13;;
16524;SDS011;8375;33.594;-117.718;2023-08-08T02:17:20;12.98;;;5.50;;
16524;SDS011;8375;33.594;-117.718;2023-08-08T02:19:49;9.82;;;5.18;;
16524;SDS011;8375;33.594;-117.718;2023-08-08T02:22:18;7.70;;;4.78;;
16524;SDS011;8375;33.594;-117.718;2023-08-08T02:24:48;9.80;;;5.20;;
16524;SDS011;8375;33.594;-117.718;2023-08-08T02:27:17;8.57;;;5.68;;
16524;SDS011;8375;33.594;-117.718;2023-08-08T02:29:46;11.23;;;5.28;;
16524;SDS011;8375;33.594;-117.718;2023-08-08T02:32:18;10.43;;;5.40;;
16524;SDS011;8375;33.594;-117.718;2023-08-08T02:34:50;12.60;;;5.45;;
16524;SDS011;8375;33.594;-117.718;2023-08-08T02:37:19;13.18;;;6.43;;
16524;SDS011;8375;33.594;-117.718;2023-08-08T02:39:51;7.95;;;5.13;;
16524;SDS011;8375;33.594;-117.718;2023-08-08T02:42:20;9.90;;;5.83;;
16524;SDS011;8375;33.594;-117.718;2023-08-08T02:44:49;12.03;;;5.77;;
16524;SDS011;8375;33.594;-117.718;2023-08-08T02:47:20;9.25;;;5.65;;
16524;SDS011;8375;33.594;-117.718;2023-08-08T02:49:49;13.10;;;6.43;;
16524;SDS011;8375;33.594;-117.718;2023-08-08T02:52:18;13.73;;;6.50;;
16524;SDS011;8375;33.594;-117.718;2023-08-08T02:54:51;10.52;;;5.88;;
16524;SDS011;8375;33.594;-117.718;2023-08-08T02:57:20;9.97;;;6.30;;
16524;SDS011;8375;33.594;-117.718;2023-08-08T02:59:49;12.97;;;6.10;;
16524;SDS011;8375;33.594;-117.718;2023-08-08T03:02:17;10.32;;;6.07;;
16524;SDS011;8375;33.594;-117.718;2023-08-08T03:04:48;13.50;;;6.27;;
16524;SDS011;8375;33.594;-117.718;2023-08-08T03:07:16;11.90;;;6.17;;
16524;SDS011;8375;33.594;-117.718;2023-08-08T03:09:45;11.40;;;6.50;;
16524;SDS011;8375;33.594;-117.718;2023-08-08T03:12:14;9.53;;;5.87;;
16524;SDS011;8375;33.594;-117.718;2023-08-08T03:14:43;13.80;;;6.40;;
16524;SDS011;8375;33.594;-117.718;2023-08-08T03:17:11;14.20;;;7.67;;
16524;SDS011;8375;33.594;-117.718;2023-08-08T03:19:42;12.73;;;6.53;;
16524;SDS011;8375;33.594;-117.718;2023-08-08T03:22:11;11.67;;;6.57;;
16524;SDS011;8375;33.594;-117.718;2023-08-08T03:24:40;13.23;;;7.10;;
16524;SDS011;8375;33.594;-117.718;2023-08-08T03:27:09;13.40;;;7.63;;
16524;SDS011;8375;33.594;-117.718;2023-08-08T03:29:37;14.50;;;7.40;;
16524;SDS011;8375;33.594;-117.718;2023-08-08T03:32:06;11.60;;;6.97;;
16524;SDS011;8375;33.594;-117.718;2023-08-08T03:34:35;12.00;;;7.30;;
16524;SDS011;8375;33.594;-117.718;2023-08-08T03:37:05;10.30;;;6.87;;
16524;SDS011;8375;33.594;-117.718;2023-08-08T03:39:34;11.77;;;7.57;;
16524;SDS011;8375;33.594;-117.718;2023-08-08T03:42:03;14.43;;;7.70;;
16524;SDS011;8375;33.594;-117.718;2023-08-08T03:44:33;12.47;;;6.43;;
16524;SDS011;8375;33.594;-117.718;2023-08-08T03:47:01;12.70;;;6.90;;
16524;SDS011;8375;33.594;-117.718;2023-08-08T03:49:30;14.87;;;7.30;;
16524;SDS011;8375;33.594;-117.718;2023-08-08T03:51:59;12.53;;;6.83;;
16524;SDS011;8375;33.594;-117.718;2023-08-08T03:54:30;13.17;;;6.90;;
16524;SDS011;8375;33.594;-117.718;2023-08-08T03:56:58;11.60;;;7.33;;
16524;SDS011;8375;33.594;-117.718;2023-08-08T03:59:27;11.10;;;6.67;;
16524;SDS011;8375;33.594;-117.718;2023-08-08T04:01:56;9.73;;;5.87;;
16524;SDS011;8375;33.594;-117.718;2023-08-08T04:04:25;14.00;;;6.87;;
16524;SDS011;8375;33.594;-117.718;2023-08-08T04:06:54;12.57;;;6.70;;
16524;SDS011;8375;33.594;-117.718;2023-08-08T04:09:23;13.37;;;6.57;;
16524;SDS011;8375;33.594;-117.718;2023-08-08T04:11:53;12.20;;;6.93;;
16524;SDS011;8375;33.594;-117.718;2023-08-08T04:14:23;10.30;;;6.63;;
16524;SDS011;8375;33.594;-117.718;2023-08-08T04:16:53;11.77;;;7.10;;
16524;SDS011;8375;33.594;-117.718;2023-08-08T04:19:22;12.60;;;6.53;;
16524;SDS011;8375;33.594;-117.718;2023-08-08T04:21:50;14.43;;;7.07;;
16524;SDS011;8375;33.594;-117.718;2023-08-08T04:24:19;13.87;;;7.60;;
16524;SDS011;8375;33.594;-117.718;2023-08-08T04:26:48;14.33;;;7.60;;
16524;SDS011;8375;33.594;-117.718;2023-08-08T04:29:18;13.80;;;7.30;;
16524;SDS011;8375;33.594;-117.718;2023-08-08T04:31:47;12.30;;;7.23;;
16524;SDS011;8375;33.594;-117.718;2023-08-08T04:34:16;13.90;;;7.90;;
16524;SDS011;8375;33.594;-117.718;2023-08-08T04:36:44;14.03;;;7.60;;
16524;SDS011;8375;33.594;-117.718;2023-08-08T04:39:13;13.03;;;7.53;;
16524;SDS011;8375;33.594;-117.718;2023-08-08T04:41:42;18.33;;;8.10;;
16524;SDS011;8375;33.594;-117.718;2023-08-08T04:44:11;13.10;;;7.60;;
16524;SDS011;8375;33.594;-117.718;2023-08-08T04:46:44;17.00;;;7.83;;
16524;SDS011;8375;33.594;-117.718;2023-08-08T04:49:12;14.07;;;7.57;;
16524;SDS011;8375;33.594;-117.718;2023-08-08T04:51:41;14.00;;;7.87;;
16524;SDS011;8375;33.594;-117.718;2023-08-08T04:54:10;16.83;;;7.87;;
16524;SDS011;8375;33.594;-117.718;2023-08-08T04:56:39;14.27;;;8.50;;
16524;SDS011;8375;33.594;-117.718;2023-08-08T04:59:07;13.20;;;7.27;;
16524;SDS011;8375;33.594;-117.718;2023-08-08T05:01:36;15.20;;;8.30;;
16524;SDS011;8375;33.594;-117.718;2023-08-08T05:04:06;16.50;;;8.20;;
16524;SDS011;8375;33.594;-117.718;2023-08-08T05:06:36;15.30;;;7.97;;
16524;SDS011;8375;33.594;-117.718;2023-08-08T05:09:05;15.43;;;8.30;;
16524;SDS011;8375;33.594;-117.718;2023-08-08T05:11:35;16.30;;;8.93;;
16524;SDS011;8375;33.594;-117.718;2023-08-08T05:14:03;17.57;;;9.03;;
16524;SDS011;8375;33.594;-117.718;2023-08-08T05:16:32;15.27;;;8.30;;
16524;SDS011;8375;33.594;-117.718;2023-08-08T05:19:01;15.77;;;8.57;;
16524;SDS011;8375;33.594;-117.718;2023-08-08T05:21:31;15.27;;;8.53;;
16524;SDS011;8375;33.594;-117.718;2023-08-08T05:24:00;19.67;;;9.30;;
16524;SDS011;8375;33.594;-117.718;2023-08-08T05:26:29;18.73;;;8.63;;
16524;SDS011;8375;33.594;-117.718;2023-08-08T05:28:57;16.60;;;8.90;;
16524;SDS011;8375;33.594;-117.718;2023-08-08T05:31:26;18.67;;;8.30;;
16524;SDS011;8375;33.594;-117.718;2023-08-08T05:33:55;16.83;;;8.83;;
16524;SDS011;8375;33.594;-117.718;2023-08-08T05:36:23;15.50;;;8.70;;
16524;SDS011;8375;33.594;-117.718;2023-08-08T05:38:54;16.43;;;9.53;;
16524;SDS011;8375;33.594;-117.718;2023-08-08T05:41:23;14.90;;;9.17;;
16524;SDS011;8375;33.594;-117.718;2023-08-08T05:43:52;18.13;;;9.43;;
16524;SDS011;8375;33.594;-117.718;2023-08-08T05:46:20;20.13;;;9.53;;
16524;SDS011;8375;33.594;-117.718;2023-08-08T05:48:49;20.27;;;10.20;;
16524;SDS011;8375;33.594;-117.718;2023-08-08T05:51:18;18.80;;;9.60;;
16524;SDS011;8375;33.594;-117.718;2023-08-08T05:53:47;18.50;;;9.67;;
16524;SDS011;8375;33.594;-117.718;2023-08-08T05:56:18;15.40;;;9.37;;
16524;SDS011;8375;33.594;-117.718;2023-08-08T05:58:47;19.20;;;9.57;;
16524;SDS011;8375;33.594;-117.718;2023-08-08T06:01:15;15.63;;;9.37;;
16524;SDS011;8375;33.594;-117.718;2023-08-08T06:03:44;19.00;;;9.03;;
16524;SDS011;8375;33.594;-117.718;2023-08-08T06:06:13;17.17;;;8.97;;
16524;SDS011;8375;33.594;-117.718;2023-08-08T06:08:41;20.33;;;9.13;;
16524;SDS011;8375;33.594;-117.718;2023-08-08T06:11:10;17.27;;;9.23;;
16524;SDS011;8375;33.594;-117.718;2023-08-08T06:13:41;17.80;;;10.00;;
16524;SDS011;8375;33.594;-117.718;2023-08-08T06:16:09;15.07;;;9.57;;
16524;SDS011;8375;33.594;-117.718;2023-08-08T06:18:38;19.90;;;9.63;;
16524;SDS011;8375;33.594;-117.718;2023-08-08T06:21:07;19.90;;;9.43;;
16524;SDS011;8375;33.594;-117.718;2023-08-08T06:23:35;17.33;;;9.03;;
16524;SDS011;8375;33.594;-117.718;2023-08-08T06:26:04;19.13;;;8.50;;
16524;SDS011;8375;33.594;-117.718;2023-08-08T06:28:33;19.60;;;9.43;;
16524;SDS011;8375;33.594;-117.718;2023-08-08T06:31:04;16.97;;;9.13;;
16524;SDS011;8375;33.594;-117.718;2023-08-08T06:33:32;18.77;;;9.60;;
16524;SDS011;8375;33.594;-117.718;2023-08-08T06:36:01;17.70;;;9.33;;
16524;SDS011;8375;33.594;-117.718;2023-08-08T06:38:30;18.93;;;9.33;;
16524;SDS011;8375;33.594;-117.718;2023-08-08T06:41:00;16.83;;;9.20;;
16524;SDS011;8375;33.594;-117.718;2023-08-08T06:43:29;16.63;;;9.20;;
16524;SDS011;8375;33.594;-117.718;2023-08-08T06:45:58;18.47;;;8.90;;
16524;SDS011;8375;33.594;-117.718;2023-08-08T06:48:29;17.20;;;9.93;;
16524;SDS011;8375;33.594;-117.718;2023-08-08T06:50:57;20.30;;;10.03;;
16524;SDS011;8375;33.594;-117.718;2023-08-08T06:53:26;20.47;;;9.47;;
16524;SDS011;8375;33.594;-117.718;2023-08-08T06:55:55;15.30;;;8.97;;
16524;SDS011;8375;33.594;-117.718;2023-08-08T06:58:23;18.10;;;9.50;;
16524;SDS011;8375;33.594;-117.718;2023-08-08T07:00:53;14.77;;;8.87;;
16524;SDS011;8375;33.594;-117.718;2023-08-08T07:03:22;18.73;;;10.00;;
16524;SDS011;8375;33.594;-117.718;2023-08-08T07:05:54;18.53;;;9.47;;
16524;SDS011;8375;33.594;-117.718;2023-08-08T07:08:22;22.47;;;10.53;;
16524;SDS011;8375;33.594;-117.718;2023-08-08T07:10:51;20.30;;;10.53;;
16524;SDS011;8375;33.594;-117.718;2023-08-08T07:13:21;17.10;;;10.10;;
16524;SDS011;8375;33.594;-117.718;2023-08-08T07:15:50;18.93;;;10.27;;
16524;SDS011;8375;33.594;-117.718;2023-08-08T07:18:19;15.80;;;9.67;;
16524;SDS011;8375;33.594;-117.718;2023-08-08T07:20:48;20.63;;;11.23;;
16524;SDS011;8375;33.594;-117.718;2023-08-08T07:23:18;19.17;;;10.43;;
16524;SDS011;8375;33.594;-117.718;2023-08-08T07:25:47;17.93;;;11.20;;
16524;SDS011;8375;33.594;-117.718;2023-08-08T07:28:16;21.60;;;11.23;;
16524;SDS011;8375;33.594;-117.718;2023-08-08T07:30:45;19.93;;;10.70;;
16524;SDS011;8375;33.594;-117.718;2023-08-08T07:33:13;19.93;;;11.80;;
16524;SDS011;8375;33.594;-117.718;2023-08-08T07:35:42;23.37;;;11.83;;
16524;SDS011;8375;33.594;-117.718;2023-08-08T07:38:11;20.07;;;11.40;;
16524;SDS011;8375;33.594;-117.718;2023-08-08T07:40:41;23.20;;;12.03;;
16524;SDS011;8375;33.594;-117.718;2023-08-08T07:43:11;19.97;;;11.17;;
16524;SDS011;8375;33.594;-117.718;2023-08-08T07:45:40;20.73;;;12.07;;
16524;SDS011;8375;33.594;-117.718;2023-08-08T07:48:09;21.60;;;11.87;;
16524;SDS011;8375;33.594;-117.718;2023-08-08T07:50:38;21.33;;;11.30;;
16524;SDS011;8375;33.594;-117.718;2023-08-08T07:53:07;22.70;;;11.27;;
16524;SDS011;8375;33.594;-117.718;2023-08-08T07:55:35;19.87;;;11.67;;
16524;SDS011;8375;33.594;-117.718;2023-08-08T07:58:06;20.30;;;11.27;;
16524;SDS011;8375;33.594;-117.718;2023-08-08T08:00:34;19.67;;;11.23;;
16524;SDS011;8375;33.594;-117.718;2023-08-08T08:03:04;24.90;;;12.00;;
16524;SDS011;8375;33.594;-117.718;2023-08-08T08:05:33;21.97;;;12.10;;
16524;SDS011;8375;33.594;-117.718;2023-08-08T08:08:03;21.40;;;10.90;;
16524;SDS011;8375;33.594;-117.718;2023-08-08T08:10:32;18.97;;;11.63;;
16524;SDS011;8375;33.594;-117.718;2023-08-08T08:13:01;18.50;;;11.30;;
16524;SDS011;8375;33.594;-117.718;2023-08-08T08:15:31;20.97;;;11.83;;
16524;SDS011;8375;33.594;-117.718;2023-08-08T08:18:00;20.40;;;11.70;;
16524;SDS011;8375;33.594;-117.718;2023-08-08T08:20:28;20.00;;;11.87;;
16524;SDS011;8375;33.594;-117.718;2023-08-08T08:22:58;23.20;;;12.13;;
16524;SDS011;8375;33.594;-117.718;2023-08-08T08:25:27;20.70;;;12.07;;
16524;SDS011;8375;33.594;-117.718;2023-08-08T08:27:56;20.80;;;11.73;;
16524;SDS011;8375;33.594;-117.718;2023-08-08T08:30:24;20.00;;;11.10;;
16524;SDS011;8375;33.594;-117.718;2023-08-08T08:32:54;18.53;;;10.80;;
16524;SDS011;8375;33.594;-117.718;2023-08-08T08:35:24;25.30;;;11.67;;
16524;SDS011;8375;33.594;-117.718;2023-08-08T08:37:53;19.37;;;10.33;;
16524;SDS011;8375;33.594;-117.718;2023-08-08T08:40:21;20.10;;;10.90;;
16524;SDS011;8375;33.594;-117.718;2023-08-08T08:42:51;19.97;;;10.03;;
16524;SDS011;8375;33.594;-117.718;2023-08-08T08:45:20;23.80;;;12.00;;
16524;SDS011;8375;33.594;-117.718;2023-08-08T08:47:50;19.67;;;11.40;;
16524;SDS011;8375;33.594;-117.718;2023-08-08T08:50:23;23.17;;;12.37;;
16524;SDS011;8375;33.594;-117.718;2023-08-08T08:52:55;21.27;;;12.73;;
16524;SDS011;8375;33.594;-117.718;2023-08-08T08:55:24;27.90;;;13.80;;
16524;SDS011;8375;33.594;-117.718;2023-08-08T08:57:54;21.50;;;13.10;;
16524;SDS011;8375;33.594;-117.718;2023-08-08T09:00:23;18.37;;;11.07;;
16524;SDS011;8375;33.594;-117.718;2023-08-08T09:02:54;24.50;;;12.47;;
16524;SDS011;8375;33.594;-117.718;2023-08-08T09:05:23;21.03;;;12.53;;
16524;SDS011;8375;33.594;-117.718;2023-08-08T09:07:52;22.67;;;12.37;;
16524;SDS011;8375;33.594;-117.718;2023-08-08T09:10:21;24.07;;;12.10;;
16524;SDS011;8375;33.594;-117.718;2023-08-08T09:12:51;20.47;;;11.43;;
16524;SDS011;8375;33.594;-117.718;2023-08-08T09:15:20;19.43;;;11.50;;
16524;SDS011;8375;33.594;-117.718;2023-08-08T09:17:49;22.97;;;12.37;;
16524;SDS011;8375;33.594;-117.718;2023-08-08T09:20:20;20.10;;;12.17;;
16524;SDS011;8375;33.594;-117.718;2023-08-08T09:22:51;23.40;;;13.20;;
16524;SDS011;8375;33.594;-117.718;2023-08-08T09:25:22;21.50;;;12.47;;
16524;SDS011;8375;33.594;-117.718;2023-08-08T09:27:51;20.97;;;12.87;;
16524;SDS011;8375;33.594;-117.718;2023-08-08T09:30:20;21.27;;;13.37;;
16524;SDS011;8375;33.594;-117.718;2023-08-08T09:32:49;24.03;;;14.67;;
16524;SDS011;8375;33.594;-117.718;2023-08-08T09:35:22;26.50;;;15.73;;
16524;SDS011;8375;33.594;-117.718;2023-08-08T09:37:52;21.87;;;14.10;;
16524;SDS011;8375;33.594;-117.718;2023-08-08T09:40:22;25.00;;;14.00;;
16524;SDS011;8375;33.594;-117.718;2023-08-08T09:42:51;23.80;;;13.80;;
16524;SDS011;8375;33.594;-117.718;2023-08-08T09:45:20;26.13;;;13.97;;
16524;SDS011;8375;33.594;-117.718;2023-08-08T09:47:50;22.13;;;14.93;;
16524;SDS011;8375;33.594;-117.718;2023-08-08T09:50:21;26.47;;;15.77;;
16524;SDS011;8375;33.594;-117.718;2023-08-08T09:52:49;28.90;;;16.80;;
16524;SDS011;8375;33.594;-117.718;2023-08-08T09:55:20;24.47;;;16.23;;
16524;SDS011;8375;33.594;-117.718;2023-08-08T09:57:50;27.20;;;16.40;;
16524;SDS011;8375;33.594;-117.718;2023-08-08T10:00:19;24.27;;;16.07;;
16524;SDS011;8375;33.594;-117.718;2023-08-08T10:02:50;22.33;;;15.43;;
16524;SDS011;8375;33.594;-117.718;2023-08-08T10:05:19;28.30;;;16.03;;
16524;SDS011;8375;33.594;-117.718;2023-08-08T10:07:50;25.30;;;15.13;;
16524;SDS011;8375;33.594;-117.718;2023-08-08T10:10:21;28.67;;;16.37;;
16524;SDS011;8375;33.594;-117.718;2023-08-08T10:12:50;30.20;;;17.47;;
16524;SDS011;8375;33.594;-117.718;2023-08-08T10:15:20;29.23;;;17.53;;
16524;SDS011;8375;33.594;-117.718;2023-08-08T10:17:54;28.97;;;16.20;;
16524;SDS011;8375;33.594;-117.718;2023-08-08T10:20:25;30.60;;;16.60;;
16524;SDS011;8375;33.594;-117.718;2023-08-08T10:22:54;31.53;;;17.57;;
16524;SDS011;8375;33.594;-117.718;2023-08-08T10:25:23;29.03;;;17.60;;
16524;SDS011;8375;33.594;-117.718;2023-08-08T10:28:01;30.13;;;17.37;;
16524;SDS011;8375;33.594;-117.718;2023-08-08T10:30:41;28.73;;;15.63;;
16524;SDS011;8375;33.594;-117.718;2023-08-08T10:33:18;30.23;;;18.57;;
16524;SDS011;8375;33.594;-117.718;2023-08-08T10:38:39;37.00;;;19.63;;
16524;SDS011;8375;33.594;-117.718;2023-08-08T10:41:09;45.17;;;20.00;;
16524;SDS011;8375;33.594;-117.718;2023-08-08T10:43:46;35.90;;;21.20;;
16524;SDS011;8375;33.594;-117.718;2023-08-08T10:46:22;32.13;;;18.63;;
16524;SDS011;8375;33.594;-117.718;2023-08-08T10:48:53;63.37;;;19.17;;
16524;SDS011;8375;33.594;-117.718;2023-08-08T10:51:33;45.47;;;19.07;;
16524;SDS011;8375;33.594;-117.718;2023-08-08T10:54:05;35.40;;;19.63;;
16524;SDS011;8375;33.594;-117.718;2023-08-08T10:56:35;30.23;;;19.20;;
16524;SDS011;8375;33.594;-117.718;2023-08-08T10:59:12;33.77;;;18.90;;
16524;SDS011;8375;33.594;-117.718;2023-08-08T11:01:43;32.23;;;18.37;;
16524;SDS011;8375;33.594;-117.718;2023-08-08T11:04:15;25.83;;;17.70;;
16524;SDS011;8375;33.594;-117.718;2023-08-08T11:06:47;27.57;;;17.00;;
16524;SDS011;8375;33.594;-117.718;2023-08-08T11:09:16;23.87;;;16.93;;
16524;SDS011;8375;33.594;-117.718;2023-08-08T11:11:45;23.80;;;16.53;;
16524;SDS011;8375;33.594;-117.718;2023-08-08T11:14:15;27.97;;;17.40;;
16524;SDS011;8375;33.594;-117.718;2023-08-08T11:16:44;28.60;;;18.60;;
16524;SDS011;8375;33.594;-117.718;2023-08-08T11:19:14;28.27;;;17.53;;
16524;SDS011;8375;33.594;-117.718;2023-08-08T11:21:45;27.37;;;18.77;;
16524;SDS011;8375;33.594;-117.718;2023-08-08T11:24:15;27.70;;;19.77;;
16524;SDS011;8375;33.594;-117.718;2023-08-08T11:26:44;24.13;;;16.70;;
16524;SDS011;8375;33.594;-117.718;2023-08-08T11:29:13;22.63;;;15.83;;
16524;SDS011;8375;33.594;-117.718;2023-08-08T11:31:42;21.27;;;16.20;;
16524;SDS011;8375;33.594;-117.718;2023-08-08T11:34:11;19.70;;;15.77;;
16524;SDS011;8375;33.594;-117.718;2023-08-08T11:36:44;18.70;;;14.00;;
16524;SDS011;8375;33.594;-117.718;2023-08-08T11:39:16;22.10;;;14.40;;
16524;SDS011;8375;33.594;-117.718;2023-08-08T11:41:45;21.20;;;13.77;;
16524;SDS011;8375;33.594;-117.718;2023-08-08T11:44:14;18.50;;;14.10;;
16524;SDS011;8375;33.594;-117.718;2023-08-08T11:46:44;20.17;;;14.13;;
16524;SDS011;8375;33.594;-117.718;2023-08-08T11:49:13;18.50;;;13.07;;
16524;SDS011;8375;33.594;-117.718;2023-08-08T11:51:43;19.17;;;12.30;;
16524;SDS011;8375;33.594;-117.718;2023-08-08T11:54:14;17.20;;;11.97;;
16524;SDS011;8375;33.594;-117.718;2023-08-08T11:56:43;17.40;;;11.87;;
16524;SDS011;8375;33.594;-117.718;2023-08-08T11:59:12;18.50;;;12.40;;
16524;SDS011;8375;33.594;-117.718;2023-08-08T12:01:41;17.13;;;11.27;;
16524;SDS011;8375;33.594;-117.718;2023-08-08T12:04:10;18.63;;;11.47;;
16524;SDS011;8375;33.594;-117.718;2023-08-08T12:06:39;14.40;;;10.37;;
16524;SDS011;8375;33.594;-117.718;2023-08-08T12:09:11;14.70;;;10.10;;
16524;SDS011;8375;33.594;-117.718;2023-08-08T12:11:42;16.73;;;9.70;;
16524;SDS011;8375;33.594;-117.718;2023-08-08T12:14:11;11.73;;;9.17;;
16524;SDS011;8375;33.594;-117.718;2023-08-08T12:16:41;12.00;;;9.23;;
16524;SDS011;8375;33.594;-117.718;2023-08-08T12:19:11;11.90;;;8.73;;
16524;SDS011;8375;33.594;-117.718;2023-08-08T12:21:43;12.70;;;8.57;;
16524;SDS011;8375;33.594;-117.718;2023-08-08T12:24:12;10.23;;;8.67;;
16524;SDS011;8375;33.594;-117.718;2023-08-08T12:26:42;9.93;;;8.83;;
16524;SDS011;8375;33.594;-117.718;2023-08-08T12:29:11;9.50;;;8.50;;
16524;SDS011;8375;33.594;-117.718;2023-08-08T12:31:39;10.23;;;8.83;;
16524;SDS011;8375;33.594;-117.718;2023-08-08T12:34:08;11.33;;;9.43;;
16524;SDS011;8375;33.594;-117.718;2023-08-08T12:36:37;10.07;;;8.40;;
16524;SDS011;8375;33.594;-117.718;2023-08-08T12:39:06;12.00;;;8.80;;
16524;SDS011;8375;33.594;-117.718;2023-08-08T12:41:36;10.33;;;8.37;;
16524;SDS011;8375;33.594;-117.718;2023-08-08T12:44:06;10.40;;;8.67;;
16524;SDS011;8375;33.594;-117.718;2023-08-08T12:46:35;11.50;;;8.37;;
16524;SDS011;8375;33.594;-117.718;2023-08-08T12:49:04;10.03;;;8.07;;
16524;SDS011;8375;33.594;-117.718;2023-08-08T12:51:32;11.67;;;7.77;;
16524;SDS011;8375;33.594;-117.718;2023-08-08T12:54:01;9.83;;;8.00;;
16524;SDS011;8375;33.594;-117.718;2023-08-08T12:56:30;9.93;;;8.60;;
16524;SDS011;8375;33.594;-117.718;2023-08-08T12:58:59;15.23;;;11.00;;
16524;SDS011;8375;33.594;-117.718;2023-08-08T13:01:30;18.80;;;10.80;;
16524;SDS011;8375;33.594;-117.718;2023-08-08T13:03:58;13.57;;;10.70;;
16524;SDS011;8375;33.594;-117.718;2023-08-08T13:06:27;14.50;;;10.20;;
16524;SDS011;8375;33.594;-117.718;2023-08-08T13:08:56;12.40;;;9.87;;
16524;SDS011;8375;33.594;-117.718;2023-08-08T13:11:25;17.13;;;10.43;;
16524;SDS011;8375;33.594;-117.718;2023-08-08T13:13:54;17.93;;;11.33;;
16524;SDS011;8375;33.594;-117.718;2023-08-08T13:16:23;13.80;;;10.17;;
16524;SDS011;8375;33.594;-117.718;2023-08-08T13:18:53;16.03;;;10.60;;
16524;SDS011;8375;33.594;-117.718;2023-08-08T13:21:22;14.70;;;10.13;;
16524;SDS011;8375;33.594;-117.718;2023-08-08T13:23:50;15.17;;;10.43;;
16524;SDS011;8375;33.594;-117.718;2023-08-08T13:26:19;15.03;;;9.67;;
16524;SDS011;8375;33.594;-117.718;2023-08-08T13:28:48;16.00;;;10.40;;
16524;SDS011;8375;33.594;-117.718;2023-08-08T13:31:17;16.70;;;10.90;;
16524;SDS011;8375;33.594;-117.718;2023-08-08T13:33:48;17.67;;;10.43;;
16524;SDS011;8375;33.594;-117.718;2023-08-08T13:36:19;18.27;;;11.80;;
16524;SDS011;8375;33.594;-117.718;2023-08-08T13:38:47;12.97;;;10.37;;
16524;SDS011;8375;33.594;-117.718;2023-08-08T13:41:16;15.67;;;10.83;;
16524;SDS011;8375;33.594;-117.718;2023-08-08T13:43:45;15.67;;;11.03;;
16524;SDS011;8375;33.594;-117.718;2023-08-08T13:46:13;15.63;;;11.40;;
16524;SDS011;8375;33.594;-117.718;2023-08-08T13:48:42;14.93;;;11.30;;
16524;SDS011;8375;33.594;-117.718;2023-08-08T13:51:11;16.47;;;11.53;;
16524;SDS011;8375;33.594;-117.718;2023-08-08T13:53:41;17.37;;;12.27;;
16524;SDS011;8375;33.594;-117.718;2023-08-08T13:56:10;19.40;;;12.67;;
16524;SDS011;8375;33.594;-117.718;2023-08-08T13:58:39;19.03;;;12.47;;
16524;SDS011;8375;33.594;-117.718;2023-08-08T14:01:08;18.57;;;12.60;;
16524;SDS011;8375;33.594;-117.718;2023-08-08T14:03:37;19.23;;;13.07;;
16524;SDS011;8375;33.594;-117.718;2023-08-08T14:06:05;19.60;;;12.90;;
16524;SDS011;8375;33.594;-117.718;2023-08-08T14:08:34;17.50;;;13.67;;
16524;SDS011;8375;33.594;-117.718;2023-08-08T14:11:05;16.10;;;12.37;;
16524;SDS011;8375;33.594;-117.718;2023-08-08T14:13:33;21.53;;;13.67;;
16524;SDS011;8375;33.594;-117.718;2023-08-08T14:16:03;19.50;;;13.53;;
16524;SDS011;8375;33.594;-117.718;2023-08-08T14:18:31;22.67;;;15.10;;
16524;SDS011;8375;33.594;-117.718;2023-08-08T14:21:00;22.07;;;13.93;;
16524;SDS011;8375;33.594;-117.718;2023-08-08T14:23:30;23.83;;;15.27;;
16524;SDS011;8375;33.594;-117.718;2023-08-08T14:25:59;21.80;;;14.73;;
16524;SDS011;8375;33.594;-117.718;2023-08-08T14:28:29;22.83;;;14.93;;
16524;SDS011;8375;33.594;-117.718;2023-08-08T14:30:58;17.60;;;13.03;;
16524;SDS011;8375;33.594;-117.718;2023-08-08T14:33:27;21.10;;;13.80;;
16524;SDS011;8375;33.594;-117.718;2023-08-08T14:35:56;22.07;;;15.87;;
16524;SDS011;8375;33.594;-117.718;2023-08-08T14:38:24;24.37;;;15.33;;
16524;SDS011;8375;33.594;-117.718;2023-08-08T14:40:53;20.20;;;14.67;;
16524;SDS011;8375;33.594;-117.718;2023-08-08T14:43:22;19.87;;;14.73;;
16524;SDS011;8375;33.594;-117.718;2023-08-08T14:45:52;20.60;;;13.90;;
16524;SDS011;8375;33.594;-117.718;2023-08-08T14:48:21;20.00;;;13.90;;
16524;SDS011;8375;33.594;-117.718;2023-08-08T14:50:50;22.70;;;15.37;;
16524;SDS011;8375;33.594;-117.718;2023-08-08T14:53:18;22.00;;;15.07;;
16524;SDS011;8375;33.594;-117.718;2023-08-08T14:55:47;25.60;;;14.93;;
16524;SDS011;8375;33.594;-117.718;2023-08-08T14:58:16;23.13;;;14.77;;
16524;SDS011;8375;33.594;-117.718;2023-08-08T15:00:44;22.00;;;14.00;;
16524;SDS011;8375;33.594;-117.718;2023-08-08T15:03:15;20.93;;;14.43;;
16524;SDS011;8375;33.594;-117.718;2023-08-08T15:05:45;26.67;;;14.03;;
16524;SDS011;8375;33.594;-117.718;2023-08-08T15:08:14;21.40;;;13.57;;
16524;SDS011;8375;33.594;-117.718;2023-08-08T15:10:43;20.17;;;13.40;;
16524;SDS011;8375;33.594;-117.718;2023-08-08T15:13:12;23.03;;;13.60;;
16524;SDS011;8375;33.594;-117.718;2023-08-08T15:15:41;19.87;;;13.40;;
16524;SDS011;8375;33.594;-117.718;2023-08-08T15:18:10;21.53;;;13.37;;
16524;SDS011;8375;33.594;-117.718;2023-08-08T15:20:40;21.03;;;12.13;;
16524;SDS011;8375;33.594;-117.718;2023-08-08T15:23:09;19.33;;;11.60;;
16524;SDS011;8375;33.594;-117.718;2023-08-08T15:25:41;20.20;;;12.60;;
16524;SDS011;8375;33.594;-117.718;2023-08-08T15:28:10;20.40;;;10.87;;
16524;SDS011;8375;33.594;-117.718;2023-08-08T15:30:38;19.87;;;11.73;;